Time;durP1;ratioP1;P1;durP2;ratioP2;P2;SDS_P1;SDS_P2;PMS_P1;PMS_P2;Temp;Humidity;BMP_temperature;BMP_pressure;BME280_temperature;BME280_humidity;BME280_pressure;Samples;Min_cycle;Max_cycle;Signal;HPM_P1;HPM_P2
2022/05/02 00:01:14;;;;;;;24.83;21.05;;;;;;;7.44;78.84;102196.50;10377815;28;20061;-73
2022/05/02 00:06:14;;;;;;;27.98;21.52;;;;;;;7.38;79.14;102199.75;10377305;28;20049;-72
2022/05/02 00:11:15;;;;;;;27.70;22.20;;;;;;;7.34;80.61;102193.81;10377066;28;20482;-72
2022/05/02 00:16:15;;;;;;;24.15;19.63;;;;;;;7.30;79.74;102188.84;10376960;28;20041;-72
2022/05/02 00:21:15;;;;;;;21.40;17.85;;;;;;;7.26;79.45;102190.13;10359690;28;20077;-72
2022/05/02 00:26:16;;;;;;;26.58;19.77;;;;;;;7.21;80.48;102188.72;10377083;28;20541;-72
2022/05/02 00:31:16;;;;;;;27.17;20.38;;;;;;;7.19;80.34;102181.78;10377071;28;20156;-73
2022/05/02 00:36:17;;;;;;;27.77;19.60;;;;;;;7.11;79.73;102178.94;10376948;28;20088;-73
2022/05/02 00:41:18;;;;;;;29.60;18.42;;;;;;;7.08;79.88;102179.22;10359024;28;20034;-73
2022/05/02 00:46:20;;;;;;;24.60;18.42;;;;;;;7.04;80.42;102172.44;10359115;28;20068;-72
2022/05/02 00:51:21;;;;;;;20.65;16.92;;;;;;;7.02;80.41;102174.41;10376164;28;20046;-72
2022/05/02 00:56:21;;;;;;;24.92;18.42;;;;;;;7.00;80.05;102171.88;10374828;28;20389;-72
2022/05/02 01:01:22;;;;;;;27.67;16.83;;;;;;;6.97;80.92;102164.06;10343040;28;20093;-72
2022/05/02 01:11:41;;;;;;;28.33;18.45;;;;;;;6.90;82.08;102158.41;10360307;28;20501;-72
2022/05/02 01:16:41;;;;;;;23.77;16.38;;;;;;;6.93;82.90;102159.97;10357338;28;20085;-72
2022/05/02 01:21:43;;;;;;;34.88;16.30;;;;;;;6.95;84.23;102149.91;10375332;28;20038;-72
2022/05/02 01:26:43;;;;;;;26.25;17.25;;;;;;;6.93;84.89;102155.44;10374508;28;20484;-72
2022/05/02 01:31:45;;;;;;;19.50;15.07;;;;;;;6.93;84.76;102152.75;10375291;28;20125;-72
2022/05/02 01:36:45;;;;;;;17.80;15.40;;;;;;;6.86;83.36;102151.63;10357351;28;20397;-73
2022/05/02 01:41:46;;;;;;;27.85;16.63;;;;;;;6.77;82.17;102143.56;10357764;28;20030;-73
2022/05/02 01:46:46;;;;;;;23.40;15.80;;;;;;;6.68;83.00;102146.09;10375679;28;20054;-72
2022/05/02 01:51:47;;;;;;;21.13;15.85;;;;;;;6.67;82.41;102147.09;10375446;28;20042;-73
2022/05/02 01:56:48;;;;;;;20.73;14.85;;;;;;;6.57;82.39;102146.22;10375928;28;20411;-73
2022/05/02 02:01:48;;;;;;;17.88;14.45;;;;;;;6.51;81.96;102150.34;10374643;28;20061;-73
2022/05/02 02:06:49;;;;;;;25.45;15.75;;;;;;;6.48;82.15;102149.78;10377262;28;20066;-72
2022/05/02 02:11:50;;;;;;;21.08;16.25;;;;;;;6.47;82.34;102139.97;10382994;28;20377;-73
2022/05/02 02:16:50;;;;;;;19.05;14.90;;;;;;;6.43;82.27;102139.41;10382882;28;20042;-73
2022/05/02 02:21:50;;;;;;;17.05;15.15;;;;;;;6.39;82.07;102137.16;10381776;28;20465;-72
2022/05/02 02:26:51;;;;;;;22.08;15.52;;;;;;;6.33;81.73;102137.72;10364992;28;20033;-73
2022/05/02 02:31:51;;;;;;;17.60;15.73;;;;;;;6.31;82.68;102134.28;10380953;28;20033;-72
2022/05/02 02:36:51;;;;;;;19.48;15.00;;;;;;;6.23;82.24;102133.16;10397583;28;20034;-73
2022/05/02 02:41:52;;;;;;;21.67;17.10;;;;;;;6.13;82.43;102126.91;10391224;28;20038;-75
2022/05/02 02:46:52;;;;;;;20.50;16.90;;;;;;;6.14;83.25;102128.59;10393103;28;20050;-74
2022/05/02 02:51:53;;;;;;;23.65;17.48;;;;;;;6.14;82.82;102138.53;10400232;28;20053;-75
2022/05/02 02:56:53;;;;;;;17.98;14.75;;;;;;;6.08;82.22;102128.31;10370479;28;20045;-74
2022/05/02 03:01:54;;;;;;;23.85;17.02;;;;;;;6.02;82.52;102127.00;10366276;28;20030;-74
2022/05/02 03:06:54;;;;;;;23.70;17.38;;;;;;;5.96;83.29;102114.97;10390680;28;20033;-74
2022/05/02 03:11:54;;;;;;;24.55;17.27;;;;;;;6.00;82.84;102121.78;10383414;28;20034;-74
2022/05/02 03:16:55;;;;;;;17.60;14.77;;;;;;;5.95;83.58;102123.19;10348178;28;20132;-74
2022/05/02 03:21:55;;;;;;;21.05;16.00;;;;;;;5.89;82.83;102112.94;10362180;28;20038;-74
2022/05/02 03:26:56;;;;;;;19.17;15.23;;;;;;;5.85;83.17;102116.91;10361442;28;20037;-74
2022/05/02 03:31:56;;;;;;;25.10;17.35;;;;;;;5.82;83.25;102115.31;10379010;28;20041;-74
2022/05/02 03:36:57;;;;;;;21.13;16.95;;;;;;;5.83;83.39;102115.19;10377370;28;20374;-75
2022/05/02 03:41:57;;;;;;;24.10;17.08;;;;;;;5.75;82.56;102106.97;10377349;28;20117;-75
2022/05/02 03:46:57;;;;;;;20.92;15.25;;;;;;;5.68;82.56;102110.31;10378185;28;20412;-74
2022/05/02 03:51:58;;;;;;;22.55;16.80;;;;;;;5.69;82.33;102109.34;10360227;28;20034;-74
2022/05/02 03:56:58;;;;;;;27.58;17.38;;;;;;;5.67;82.65;102114.00;10361773;28;20030;-74
2022/05/02 04:01:59;;;;;;;21.15;16.90;;;;;;;5.70;83.30;102113.72;10361092;28;20034;-75
2022/05/02 04:06:59;;;;;;;25.77;17.52;;;;;;;5.75;83.25;102123.09;10361330;28;20402;-74
2022/05/02 04:11:59;;;;;;;24.58;16.73;;;;;;;5.66;82.65;102113.16;10377890;28;20033;-74
2022/05/02 04:17:00;;;;;;;25.67;16.85;;;;;;;5.64;83.34;102115.13;10376700;28;20042;-75
2022/05/02 04:22:00;;;;;;;17.67;15.82;;;;;;;5.69;83.74;102117.41;10378293;28;20041;-74
2022/05/02 04:27:01;;;;;;;24.05;16.63;;;;;;;5.73;82.99;102114.31;10359962;28;20394;-74
2022/05/02 04:32:01;;;;;;;25.38;18.98;;;;;;;5.73;83.43;102114.31;10375821;28;20113;-74
2022/05/02 04:37:01;;;;;;;21.48;17.40;;;;;;;5.89;83.68;102129.06;10375447;28;20085;-75
2022/05/02 04:42:02;;;;;;;21.25;16.60;;;;;;;6.01;83.45;102130.69;10359159;28;20099;-74
2022/05/02 04:47:03;;;;;;;23.52;18.40;;;;;;;6.10;84.27;102132.56;10375059;28;20042;-74
2022/05/02 04:52:04;;;;;;;21.25;18.42;;;;;;;6.18;85.13;102124.63;10375866;28;20069;-72
2022/05/02 04:57:04;;;;;;;23.55;17.27;;;;;;;6.33;85.87;102126.94;10374669;28;20116;-73
2022/05/02 05:02:05;;;;;;;22.52;17.85;;;;;;;6.43;85.59;102119.72;10375158;28;20034;-74
2022/05/02 05:07:05;;;;;;;25.83;18.33;;;;;;;6.59;85.21;102130.78;10374130;28;20041;-73
2022/05/02 05:12:43;;;;;;;23.83;18.02;;;;;;;6.76;86.15;102131.91;10375059;28;20038;-76
2022/05/02 05:18:02;;;;;;;24.67;18.92;;;;;;;6.91;88.42;102133.19;10341029;28;20458;-75
2022/05/02 05:23:21;;;;;;;24.80;18.02;;;;;;;7.54;90.20;102131.78;10375111;28;20049;-74
2022/05/02 05:28:50;;;;;;;24.13;19.40;;;;;;;8.80;88.17;102131.00;10374666;28;20034;-75
2022/05/02 05:34:10;;;;;;;20.75;18.42;;;;;;;9.73;87.97;102129.47;10373775;28;20108;-74
2022/05/02 05:39:11;;;;;;;23.05;14.90;;;;;;;10.28;87.58;102128.16;10373836;28;20040;-75
2022/05/02 05:44:18;;;;;;;17.90;14.40;;;;;;;10.82;86.81;102123.16;10373148;28;20033;-74
2022/05/02 05:49:49;;;;;;;16.92;12.77;;;;;;;11.56;85.84;102126.59;10356334;28;20052;-75
2022/05/02 05:55:06;;;;;;;12.50;9.73;;;;;;;11.88;86.98;102118.56;10352067;28;20176;-75
2022/05/02 06:00:14;;;;;;;15.35;10.88;;;;;;;12.07;88.15;102128.97;10324136;28;20445;-74
2022/05/02 06:05:14;;;;;;;12.00;10.32;;;;;;;12.45;86.31;102126.41;10372809;28;20041;-75
2022/05/02 06:10:16;;;;;;;15.25;9.32;;;;;;;12.65;85.03;102130.31;10373551;28;20042;-75
2022/05/02 06:20:39;;;;;;;10.52;9.05;;;;;;;13.37;80.51;102126.31;10371663;28;20117;-73
2022/05/02 06:25:39;;;;;;;11.30;8.50;;;;;;;13.95;79.29;102120.03;10357081;28;20037;-74
2022/05/02 06:30:40;;;;;;;10.13;9.05;;;;;;;14.07;74.34;102119.53;10373730;28;20367;-75
2022/05/02 06:35:50;;;;;;;12.50;9.45;;;;;;;14.66;75.77;102124.81;10372150;28;20038;-75
2022/05/02 06:41:04;;;;;;;9.57;7.88;;;;;;;15.72;73.66;102117.47;10372342;28;20034;-75
2022/05/02 06:46:25;;;;;;;17.27;10.13;;;;;;;16.43;72.89;102119.00;10371646;28;20076;-77
2022/05/02 06:51:29;;;;;;;13.30;10.20;;;;;;;16.84;71.86;102118.06;10357392;28;20034;-75
2022/05/02 06:56:38;;;;;;;9.75;8.75;;;;;;;17.29;69.85;102116.34;10378965;28;20041;-75
2022/05/02 07:01:49;;;;;;;14.55;10.50;;;;;;;17.53;68.65;102124.97;10379880;28;20393;-75
2022/05/02 07:06:58;;;;;;;13.50;10.23;;;;;;;18.41;68.97;102117.06;10380527;28;20025;-74
2022/05/02 07:12:29;;;;;;;11.50;8.90;;;;;;;18.77;66.95;102118.31;10380200;28;20120;-75
2022/05/02 07:17:45;;;;;;;11.02;8.32;;;;;;;19.22;65.70;102113.50;10346355;28;20042;-75
2022/05/02 07:23:26;;;;;;;13.10;8.82;;;;;;;19.47;62.68;102118.97;10379459;28;20038;-74
2022/05/02 07:28:49;;;;;;;11.15;8.00;;;;;;;19.47;59.80;102105.22;10376537;28;20052;-74
2022/05/02 07:33:54;;;;;;;7.63;7.03;;;;;;;19.92;56.43;102109.63;10360781;28;20477;-75
2022/05/02 07:39:15;;;;;;;10.13;8.90;;;;;;;20.58;54.88;102116.13;10360843;28;20089;-75
2022/05/02 07:44:17;;;;;;;11.45;8.98;;;;;;;20.01;47.56;102110.16;10360776;28;20037;-73
2022/05/02 07:49:22;;;;;;;13.02;7.82;;;;;;;20.16;49.65;102116.06;10359911;28;20085;-75
2022/05/02 07:54:26;;;;;;;11.38;7.65;;;;;;;20.32;49.54;102109.91;10343491;28;20045;-75
2022/05/02 07:59:38;;;;;;;10.48;8.70;;;;;;;20.95;47.32;102118.75;10376917;28;20030;-74
2022/05/02 08:04:40;;;;;;;9.63;8.73;;;;;;;20.61;48.45;102110.16;10343553;28;20080;-76
2022/05/02 08:10:02;;;;;;;13.50;8.45;;;;;;;20.75;45.96;102106.13;10376092;28;20453;-74
2022/05/02 08:15:12;;;;;;;14.60;9.35;;;;;;;20.38;41.96;102097.13;10376907;28;20036;-76
2022/05/02 08:20:16;;;;;;;9.13;7.75;;;;;;;21.36;40.59;102101.31;10328365;28;20113;-75
2022/05/02 08:31:08;;;;;;;7.40;6.80;;;;;;;20.56;40.63;102108.13;10363859;28;20478;-75
2022/05/02 08:36:13;;;;;;;8.50;6.90;;;;;;;21.49;44.66;102109.31;10344018;28;20089;-75
2022/05/02 08:41:29;;;;;;;13.05;6.15;;;;;;;22.59;45.09;102103.81;10359460;28;20490;-75
2022/05/02 08:47:12;;;;;;;8.45;6.82;;;;;;;22.68;39.09;102110.63;10373216;28;20116;-75
2022/05/02 08:52:34;;;;;;;9.23;6.95;;;;;;;22.67;37.51;102103.44;10357913;28;20046;-74
2022/05/02 08:57:56;;;;;;;14.32;6.22;;;;;;;22.94;39.13;102106.38;10358754;28;20378;-75
2022/05/02 09:03:02;;;;;;;8.60;6.43;;;;;;;22.98;37.81;102105.66;10358066;28;20376;-74
2022/05/02 09:08:08;;;;;;;7.38;6.28;;;;;;;23.24;33.96;102106.06;10359370;28;20030;-72
2022/05/02 09:13:47;;;;;;;5.30;4.80;;;;;;;23.11;34.40;102098.94;10376255;28;20382;-74
2022/05/02 09:19:07;;;;;;;7.60;5.78;;;;;;;22.44;35.29;102096.94;10344555;28;20124;-72
2022/05/02 09:24:32;;;;;;;5.43;5.03;;;;;;;23.08;37.52;102090.34;10359477;28;20145;-74
2022/05/02 09:29:51;;;;;;;5.40;4.78;;;;;;;23.75;38.78;102083.84;10359154;28;20459;-73
2022/05/02 09:34:58;;;;;;;6.72;5.47;;;;;;;23.99;35.59;102074.16;10359026;28;20041;-75
2022/05/02 09:40:12;;;;;;;7.10;6.45;;;;;;;23.73;31.42;102073.03;10358054;28;20390;-74
2022/05/02 09:50:34;;;;;;;6.07;5.15;;;;;;;24.23;32.87;102071.94;10358896;28;20050;-75
2022/05/02 10:01:20;;;;;;;5.22;4.47;;;;;;;23.97;32.90;102070.00;10373231;28;20478;-75
2022/05/02 10:06:43;;;;;;;11.18;5.97;;;;;;;24.44;31.41;102064.72;10376265;28;20109;-74
2022/05/02 10:11:52;;;;;;;5.95;5.45;;;;;;;24.75;32.92;102063.03;10358745;28;20041;-74
2022/05/02 10:17:13;;;;;;;7.40;4.88;;;;;;;25.24;33.35;102057.34;10374289;28;20061;-75
2022/05/02 10:22:51;;;;;;;4.35;4.13;;;;;;;25.29;35.04;102057.34;10374178;28;20034;-75
2022/05/02 10:28:19;;;;;;;8.63;5.82;;;;;;;25.39;27.53;102061.28;10378250;28;20113;-75
2022/05/02 10:33:31;;;;;;;5.85;4.57;;;;;;;24.83;29.49;102058.97;10381030;28;20466;-74
2022/05/02 10:38:31;;;;;;;9.02;5.57;;;;;;;23.84;29.58;102054.63;10363378;28;20033;-73
2022/05/02 10:43:32;;;;;;;7.32;5.78;;;;;;;24.63;35.96;102051.28;10346138;28;20057;-74
2022/05/02 10:48:41;;;;;;;4.85;4.45;;;;;;;25.97;36.83;102049.09;10379410;28;20050;-74
2022/05/02 10:53:56;;;;;;;5.50;4.97;;;;;;;25.89;27.08;102044.06;10347471;28;20052;-73
2022/05/02 10:58:56;;;;;;;6.85;6.25;;;;;;;24.69;31.78;102041.94;10380817;28;20038;-73
2022/05/02 11:04:12;;;;;;;5.63;5.15;;;;;;;25.82;34.50;102039.88;10363056;28;20129;-74
2022/05/02 11:09:13;;;;;;;11.03;6.83;;;;;;;25.60;31.14;102042.81;10380019;28;20030;-75
2022/05/02 11:14:31;;;;;;;8.80;6.85;;;;;;;26.13;34.33;102036.06;10362088;28;20118;-74
2022/05/02 11:25:23;;;;;;;9.18;6.38;;;;;;;24.88;30.21;102022.13;10378460;28;20462;-73
2022/05/02 11:30:28;;;;;;;8.98;7.55;;;;;;;25.88;33.95;102011.88;10362238;28;20042;-74
2022/05/02 11:35:30;;;;;;;7.78;6.95;;;;;;;25.41;32.51;102014.72;10361365;28;20030;-73
2022/05/02 11:40:33;;;;;;;12.55;6.68;;;;;;;26.12;32.34;102020.50;10360119;28;20446;-74
2022/05/02 11:45:43;;;;;;;8.23;7.43;;;;;;;26.54;33.40;102013.91;10361830;28;20141;-75
2022/05/02 11:50:44;;;;;;;5.85;5.22;;;;;;;27.01;34.27;102006.34;10360121;28;20065;-76
2022/05/02 11:55:46;;;;;;;7.57;5.82;;;;;;;25.45;35.99;102010.28;10359883;28;20393;-74
2022/05/02 12:00:50;;;;;;;7.15;5.45;;;;;;;25.70;32.95;102012.31;10368450;28;20029;-75
2022/05/02 12:05:57;;;;;;;8.60;6.40;;;;;;;25.73;31.04;102007.06;10344006;28;20034;-74
2022/05/02 12:11:08;;;;;;;11.23;5.82;;;;;;;26.00;34.55;102006.03;10360892;28;20038;-73
2022/05/02 12:16:10;;;;;;;6.82;5.05;;;;;;;26.23;33.88;101995.53;10359698;28;20117;-75
2022/05/02 12:21:16;;;;;;;6.25;4.85;;;;;;;26.24;33.43;102013.88;10359207;28;20125;-73
2022/05/02 12:26:18;;;;;;;5.95;5.45;;;;;;;25.92;31.08;102006.59;10360768;28;20067;-74
2022/05/02 12:31:30;;;;;;;6.05;5.43;;;;;;;25.62;30.79;102002.59;10376877;28;20133;-72
2022/05/02 12:36:54;;;;;;;5.18;4.40;;;;;;;25.44;34.62;102000.31;10359163;28;20034;-74
2022/05/02 12:42:16;;;;;;;6.40;5.53;;;;;;;25.26;32.06;102001.59;10348180;28;20046;-74
2022/05/02 12:47:22;;;;;;;9.00;5.50;;;;;;;24.91;35.38;101991.13;10376783;28;20082;-73
2022/05/02 12:52:23;;;;;;;6.93;6.07;;;;;;;24.64;33.47;101994.00;10374892;28;20033;-74
2022/05/02 13:03:27;;;;;;;17.42;6.25;;;;;;;24.00;32.15;101987.31;10345994;28;20470;-74
2022/05/02 13:08:36;;;;;;;7.28;5.13;;;;;;;23.94;35.24;101977.28;10376198;28;20105;-73
2022/05/02 13:13:45;;;;;;;16.27;6.38;;;;;;;24.27;33.35;101976.19;10342391;28;20038;-73
2022/05/02 13:18:47;;;;;;;6.97;5.68;;;;;;;24.22;35.60;101976.19;10375166;28;20061;-73
2022/05/02 13:24:07;;;;;;;6.18;5.57;;;;;;;24.19;36.28;101979.47;10357519;28;20042;-74
2022/05/02 13:29:08;;;;;;;8.52;6.93;;;;;;;23.96;34.25;101971.47;10374580;28;20036;-74
2022/05/02 13:34:22;;;;;;;12.98;6.97;;;;;;;23.41;33.83;101971.41;10375743;28;20370;-73
2022/05/02 13:39:23;;;;;;;7.05;6.45;;;;;;;22.93;34.99;101967.44;10342195;28;20038;-73
2022/05/02 13:44:31;;;;;;;9.07;5.78;;;;;;;23.18;37.47;101958.66;10356705;28;20058;-74
2022/05/02 13:49:51;;;;;;;10.73;6.03;;;;;;;23.06;36.87;101955.19;10356616;28;20143;-73
2022/05/02 13:54:53;;;;;;;6.53;5.85;;;;;;;22.73;34.97;101956.06;10374338;28;20033;-73
2022/05/02 14:05:30;;;;;;;5.93;5.40;;;;;;;22.55;36.17;101957.19;10366844;28;20095;-74
2022/05/02 14:10:30;;;;;;;6.30;5.13;;;;;;;22.13;36.53;101959.47;10366098;28;20034;-74
2022/05/02 14:15:33;;;;;;;10.20;6.00;;;;;;;21.69;37.15;101957.28;10381766;28;20485;-73
2022/05/02 14:20:34;;;;;;;6.00;5.40;;;;;;;21.76;37.86;101954.38;10381124;28;20042;-74
2022/05/02 14:25:43;;;;;;;6.40;5.88;;;;;;;21.48;37.99;101958.84;10364743;28;20040;-74
2022/05/02 14:30:48;;;;;;;6.50;5.82;;;;;;;20.97;38.90;101948.63;10364928;28;20097;-74
2022/05/02 14:35:48;;;;;;;6.03;5.43;;;;;;;20.93;39.43;101945.53;10382321;28;20041;-74
2022/05/02 14:40:49;;;;;;;6.82;6.10;;;;;;;20.76;40.60;101952.81;10346716;28;20041;-74
2022/05/02 14:45:52;;;;;;;8.45;5.30;;;;;;;20.81;40.21;101947.44;10379506;28;20034;-73
2022/05/02 14:51:13;;;;;;;10.50;4.72;;;;;;;20.35;40.66;101936.13;10381188;28;20072;-73
2022/05/02 14:56:15;;;;;;;5.38;4.88;;;;;;;20.14;41.26;101940.28;10379909;28;20042;-74
2022/05/02 15:01:16;;;;;;;4.78;4.38;;;;;;;20.04;41.17;101950.19;10346300;28;20049;-73
2022/05/02 15:06:30;;;;;;;6.13;4.47;;;;;;;19.74;41.39;101940.06;10346300;28;20045;-73
2022/05/02 15:11:56;;;;;;;5.70;5.07;;;;;;;19.47;41.16;101942.31;10344781;28;20419;-74
2022/05/02 15:17:25;;;;;;;4.40;4.00;;;;;;;19.34;41.47;101935.09;10378696;28;20030;-73
2022/05/02 15:22:51;;;;;;;5.68;3.97;;;;;;;19.15;41.80;101942.50;10361526;28;20041;-74
2022/05/02 15:38:57;;;;;;;4.05;3.75;;;;;;;18.13;43.67;101944.72;10378002;28;20069;-73
2022/05/02 15:43:57;;;;;;;3.45;2.92;;;;;;;18.00;44.47;101950.28;10361140;28;20037;-74
2022/05/02 15:49:07;;;;;;;3.55;2.92;;;;;;;17.69;44.39;101943.69;10377170;28;20437;-74
2022/05/02 15:54:23;;;;;;;3.33;3.08;;;;;;;17.41;45.60;101942.13;10378481;28;20034;-74
2022/05/02 15:59:30;;;;;;;7.63;4.10;;;;;;;17.41;45.85;101941.31;10377751;28;20156;-74
2022/05/02 16:04:34;;;;;;;;;;;;;;;17.17;46.25;101948.38;10377803;28;20037;-74
2022/05/02 16:14:54;;;;;;;2.88;2.67;;;;;;;16.01;46.95;101955.16;10376785;28;20046;-74
2022/05/02 16:19:54;;;;;;;9.98;3.53;;;;;;;15.76;47.07;101954.03;10377938;28;20038;-73
2022/05/02 16:24:55;;;;;;;3.60;2.55;;;;;;;15.47;47.75;101939.63;10377573;28;20030;-74
2022/05/02 16:29:56;;;;;;;6.10;2.35;;;;;;;15.26;46.88;101945.25;10343096;28;20029;-74
2022/05/02 16:34:57;;;;;;;2.97;2.38;;;;;;;15.00;47.59;101933.16;10376489;28;20042;-74
2022/05/02 16:39:57;;;;;;;2.55;2.40;;;;;;;14.86;48.14;101950.47;10357949;28;20343;-73
2022/05/02 16:45:00;;;;;;;3.28;2.45;;;;;;;14.70;48.94;101938.00;10343425;28;20089;-74
2022/05/02 16:50:01;;;;;;;3.83;3.45;;;;;;;14.64;49.43;101936.06;10357607;28;20057;-74
2022/05/02 16:55:02;;;;;;;3.13;2.20;;;;;;;14.48;50.53;101939.91;10375371;28;20040;-74
2022/05/02 17:00:24;;;;;;;4.28;3.00;;;;;;;14.29;50.99;101933.25;10358687;28;20465;-74
2022/05/02 17:05:24;;;;;;;3.80;3.25;;;;;;;14.27;50.60;101940.78;10376290;28;20139;-73
2022/05/02 17:10:25;;;;;;;3.50;2.42;;;;;;;14.36;49.03;101941.50;10341304;28;20064;-74
2022/05/02 17:15:25;;;;;;;3.17;2.88;;;;;;;14.14;52.30;101946.97;10375309;28;20034;-74
2022/05/02 17:20:25;;;;;;;4.28;3.25;;;;;;;14.06;54.85;101946.25;10373725;28;20117;-73
2022/05/02 17:25:26;;;;;;;3.97;3.53;;;;;;;13.96;53.77;101949.28;10357578;28;20069;-73
2022/05/02 17:30:26;;;;;;;4.38;3.55;;;;;;;13.91;54.04;101954.47;10341943;28;20026;-74
2022/05/02 17:35:28;;;;;;;3.70;3.42;;;;;;;13.76;56.24;101954.53;10358706;28;20116;-74
2022/05/02 17:40:36;;;;;;;4.50;4.10;;;;;;;13.69;55.36;101957.19;10374921;28;20062;-73
2022/05/02 17:45:38;;;;;;;4.70;3.55;;;;;;;13.47;56.71;101948.16;10357721;28;20034;-73
2022/05/02 17:50:39;;;;;;;9.50;3.67;;;;;;;13.41;56.87;101958.94;10372599;28;20053;-73
2022/05/02 17:55:44;;;;;;;5.18;3.22;;;;;;;13.30;57.26;101948.53;10340526;28;20058;-73
2022/05/02 18:00:45;;;;;;;4.70;3.58;;;;;;;13.14;57.73;101969.44;10356126;28;20113;-74
2022/05/02 18:05:47;;;;;;;4.10;3.78;;;;;;;13.06;56.85;101961.38;10339874;28;20034;-73
2022/05/02 18:11:04;;;;;;;5.07;2.85;;;;;;;13.01;58.75;101963.81;10356512;28;20028;-73
2022/05/02 18:16:21;;;;;;;10.55;4.03;;;;;;;12.82;56.84;101976.09;10356783;28;20096;-73
2022/05/02 18:21:21;;;;;;;5.53;3.63;;;;;;;12.73;55.41;101971.75;10374062;28;20050;-73
2022/05/02 18:26:23;;;;;;;6.68;4.15;;;;;;;12.54;57.85;101968.56;10373617;28;20030;-73
2022/05/02 18:31:24;;;;;;;6.78;3.13;;;;;;;12.43;58.66;101981.75;10356269;28;20042;-73
2022/05/02 18:36:25;;;;;;;2.80;2.65;;;;;;;12.26;60.93;101983.75;10374243;28;20045;-72
2022/05/02 18:41:30;;;;;;;6.90;3.13;;;;;;;12.13;60.86;101980.81;10375951;28;20517;-71
2022/05/02 18:57:14;;;;;;;6.43;3.67;;;;;;;11.59;62.71;101989.75;10380844;28;20420;-72
2022/05/02 19:02:17;;;;;;;8.10;3.58;;;;;;;11.45;64.53;102004.06;10348435;28;20502;-74
2022/05/02 19:07:18;;;;;;;6.60;3.83;;;;;;;11.35;64.42;102002.41;10332152;28;20040;-74
2022/05/02 19:12:20;;;;;;;4.53;4.10;;;;;;;11.22;65.70;102012.13;10382643;28;20032;-72
2022/05/02 19:17:21;;;;;;;9.15;4.22;;;;;;;11.06;66.84;102015.72;10379393;28;20034;-72
2022/05/02 19:22:36;;;;;;;6.70;4.72;;;;;;;10.92;66.85;102018.13;10379075;28;20026;-73
2022/05/02 19:27:44;;;;;;;4.35;3.95;;;;;;;10.80;66.31;102019.50;10347154;28;20101;-72
2022/05/02 19:32:49;;;;;;;6.45;4.75;;;;;;;10.69;72.46;102025.28;10346184;28;20041;-76
2022/05/02 19:43:14;;;;;;;6.10;5.18;;;;;;;10.44;75.56;102016.31;10378672;28;20033;-76
2022/05/02 19:48:15;;;;;;;8.25;5.32;;;;;;;10.42;72.21;102032.72;10345237;28;20454;-74
2022/05/02 19:53:16;;;;;;;10.57;6.20;;;;;;;10.35;73.92;102039.00;10362092;28;20115;-75
2022/05/02 19:58:16;;;;;;;6.43;5.82;;;;;;;10.25;75.94;102026.41;10378634;28;20029;-76
2022/05/02 20:03:17;;;;;;;13.38;6.78;;;;;;;10.22;76.41;102036.75;10360630;28;20030;-74
2022/05/02 20:08:19;;;;;;;6.22;5.68;;;;;;;10.12;78.35;102025.22;10360439;28;20038;-70
2022/05/02 20:13:19;;;;;;;7.15;6.35;;;;;;;10.06;80.32;102034.03;10360527;28;20026;-73
2022/05/02 20:18:20;;;;;;;15.80;7.72;;;;;;;10.05;75.90;102030.47;10359572;28;20045;-74
2022/05/02 20:23:20;;;;;;;9.38;6.93;;;;;;;9.99;75.65;102031.13;10377411;28;20030;-73
2022/05/02 20:28:21;;;;;;;9.68;7.47;;;;;;;9.89;78.92;102025.00;10375553;28;20162;-74
2022/05/02 20:38:40;;;;;;;13.25;8.52;;;;;;;9.81;80.58;102014.16;10377132;28;20041;-72
2022/05/02 20:44:01;;;;;;;11.73;8.45;;;;;;;9.79;78.66;102019.72;10362248;28;20468;-73
2022/05/02 20:49:07;;;;;;;10.95;7.78;;;;;;;9.70;77.88;102028.81;10359798;28;20137;-73
2022/05/02 20:54:08;;;;;;;16.05;9.32;;;;;;;9.65;78.28;102026.63;10359788;28;20030;-73
2022/05/02 20:59:08;;;;;;;17.63;7.65;;;;;;;9.61;76.06;102024.44;10358412;28;20034;-73
2022/05/02 21:04:08;;;;;;;13.48;7.97;;;;;;;9.50;74.55;102018.28;10375846;28;20065;-73
2022/05/02 21:09:09;;;;;;;15.25;9.25;;;;;;;9.42;74.16;102023.66;10374176;28;20105;-73
2022/05/02 21:14:35;;;;;;;10.25;8.93;;;;;;;9.37;74.88;102017.91;10376481;28;20038;-73
2022/05/02 21:20:02;;;;;;;16.80;7.77;;;;;;;9.30;76.60;102028.50;10375352;28;20050;-72
2022/05/02 21:25:12;;;;;;;11.20;9.35;;;;;;;9.31;77.13;102026.66;10357773;28;20022;-72
2022/05/02 21:30:14;;;;;;;12.55;8.45;;;;;;;9.27;76.54;102036.94;10376170;28;20038;-73
2022/05/02 21:35:15;;;;;;;11.68;9.77;;;;;;;9.20;82.87;102043.16;10341779;28;20033;-74
2022/05/02 21:40:17;;;;;;;12.15;7.70;;;;;;;9.21;82.28;102045.69;10341566;28;20045;-73
2022/05/02 21:45:18;;;;;;;18.95;8.85;;;;;;;9.21;83.71;102048.38;10375238;28;20087;-73
2022/05/02 21:50:18;;;;;;;14.40;8.40;;;;;;;9.17;85.99;102049.72;10356628;28;20490;-73
2022/05/02 21:55:21;;;;;;;9.25;8.35;;;;;;;9.23;83.17;102048.25;10357493;28;20046;-73
2022/05/02 22:00:24;;;;;;;15.35;8.75;;;;;;;9.14;81.73;102043.81;10342101;28;20032;-74
2022/05/02 22:05:25;;;;;;;9.52;7.97;;;;;;;9.06;79.40;102042.75;10372386;28;20022;-72
2022/05/02 22:10:25;;;;;;;12.90;9.65;;;;;;;8.98;80.26;102049.94;10341451;28;20072;-74
2022/05/02 22:15:26;;;;;;;10.27;8.88;;;;;;;8.97;79.43;102046.41;10379461;28;20030;-73
2022/05/02 22:20:26;;;;;;;15.77;10.95;;;;;;;8.92;80.58;102037.91;10374283;28;20034;-73
2022/05/02 22:25:28;;;;;;;15.20;9.27;;;;;;;8.89;79.54;102040.94;10381861;28;20034;-72
2022/05/02 22:30:29;;;;;;;14.55;9.93;;;;;;;8.88;79.19;102038.41;10364925;28;20057;-73
2022/05/02 22:35:29;;;;;;;19.52;10.60;;;;;;;8.75;78.35;102038.81;10382545;28;20034;-72
2022/05/02 22:40:30;;;;;;;21.15;11.05;;;;;;;8.67;77.69;102036.03;10379485;28;20034;-73
2022/05/02 22:45:31;;;;;;;12.93;10.63;;;;;;;8.60;79.22;102035.81;10363426;28;20026;-74
2022/05/02 22:50:31;;;;;;;20.75;11.45;;;;;;;8.50;77.43;102035.91;10382637;28;20061;-73
2022/05/02 22:55:32;;;;;;;14.88;10.02;;;;;;;8.41;77.19;102031.44;10363598;28;20515;-73
2022/05/02 23:00:35;;;;;;;18.67;12.10;;;;;;;8.37;77.47;102032.75;10378702;28;20038;-73
2022/05/02 23:05:43;;;;;;;17.42;10.73;;;;;;;8.36;77.16;102033.75;10378603;28;20433;-73
2022/05/02 23:10:49;;;;;;;15.90;11.43;;;;;;;8.32;77.59;102035.03;10362424;28;20541;-74
2022/05/02 23:15:49;;;;;;;16.88;12.07;;;;;;;8.29;77.26;102032.66;10378265;28;20405;-74
2022/05/02 23:20:50;;;;;;;17.10;13.85;;;;;;;8.27;77.37;102032.81;10378027;28;20025;-73
2022/05/02 23:25:51;;;;;;;20.52;14.90;;;;;;;8.27;78.74;102030.13;10363209;28;20355;-73
2022/05/02 23:31:02;;;;;;;23.05;14.80;;;;;;;8.23;78.85;102027.88;10361690;28;20125;-73
2022/05/02 23:36:26;;;;;;;21.17;15.32;;;;;;;8.15;77.88;102028.66;10377857;28;20458;-74
2022/05/02 23:41:29;;;;;;;19.08;15.38;;;;;;;8.05;77.37;102030.59;10354677;28;20042;-72
2022/05/02 23:47:05;;;;;;;24.60;17.70;;;;;;;7.99;76.82;102029.34;10363846;28;20057;-73
2022/05/02 23:52:28;;;;;;;23.55;14.13;;;;;;;7.89;77.33;102026.72;10373805;28;20057;-73
2022/05/02 23:57:59;;;;;;;24.70;16.48;;;;;;;7.83;77.24;102021.09;10378149;28;20092;-73
